Time;durP1;ratioP1;P1;durP2;ratioP2;P2;SDS_P1;SDS_P2;PMS_P1;PMS_P2;Temp;Humidity;BMP_temperature;BMP_pressure;BME280_temperature;BME280_humidity;BME280_pressure;Samples;Min_cycle;Max_cycle;Signal;HPM_P1;HPM_P2
2021/10/14 00:01:18;;;;;;;10.68;4.72;;;;;;;11.45;90.05;102526.75;4992554;28;20046;-47
2021/10/14 00:03:46;;;;;;;9.27;4.80;;;;;;;11.44;89.84;102530.50;4987102;28;20102;-49
2021/10/14 00:06:13;;;;;;;10.20;4.53;;;;;;;11.43;89.64;102523.41;4990661;28;20543;-47
2021/10/14 00:08:41;;;;;;;11.60;5.15;;;;;;;11.44;90.36;102524.22;4992278;28;20046;-48
2021/10/14 00:11:09;;;;;;;11.25;4.72;;;;;;;11.44;90.52;102519.59;4992104;28;20077;-45
2021/10/14 00:13:36;;;;;;;9.93;4.80;;;;;;;11.44;90.67;102519.59;4990862;28;20408;-47
2021/10/14 00:16:04;;;;;;;11.48;4.80;;;;;;;11.46;90.19;102522.09;4991388;28;20054;-48
2021/10/14 00:18:32;;;;;;;13.15;5.63;;;;;;;11.46;90.60;102517.47;4991769;28;20061;-47
2021/10/14 00:20:59;;;;;;;8.55;4.75;;;;;;;11.47;90.60;102521.03;4992235;28;20121;-47
2021/10/14 00:23:27;;;;;;;11.23;4.93;;;;;;;11.46;90.71;102522.94;4991853;28;20046;-47
2021/10/14 00:25:55;;;;;;;12.45;5.20;;;;;;;11.44;90.26;102519.59;4991923;28;20041;-46
2021/10/14 00:28:22;;;;;;;10.65;5.78;;;;;;;11.43;90.55;102509.75;4990210;28;20062;-48
2021/10/14 00:30:50;;;;;;;12.40;5.53;;;;;;;11.41;90.85;102506.41;4991847;28;20035;-48
2021/10/14 00:33:17;;;;;;;10.80;6.28;;;;;;;11.40;90.70;102509.38;4991233;28;20122;-48
2021/10/14 00:35:45;;;;;;;12.77;6.10;;;;;;;11.39;91.17;102505.81;4992078;28;20496;-48
2021/10/14 00:38:12;;;;;;;11.23;6.32;;;;;;;11.41;91.00;102517.34;4991725;28;20057;-45
2021/10/14 00:40:40;;;;;;;11.70;6.22;;;;;;;11.39;91.74;102505.81;4992048;28;20050;-47
2021/10/14 00:43:08;;;;;;;14.63;7.05;;;;;;;11.39;91.75;102497.63;5006960;28;20038;-47
2021/10/14 00:45:36;;;;;;;15.90;6.97;;;;;;;11.40;90.95;102507.50;4991010;28;20520;-48
2021/10/14 00:48:04;;;;;;;10.73;5.60;;;;;;;11.40;91.73;102498.44;4991104;28;20085;-50
2021/10/14 00:50:31;;;;;;;13.68;7.03;;;;;;;11.40;91.81;102496.59;4991772;28;20038;-50
2021/10/14 00:53:00;;;;;;;12.25;7.75;;;;;;;11.41;91.36;102487.31;4991885;28;20039;-48
2021/10/14 00:55:28;;;;;;;12.48;6.78;;;;;;;11.43;91.81;102485.19;5006289;28;20071;-47
2021/10/14 00:57:56;;;;;;;10.85;7.15;;;;;;;11.41;91.49;102491.94;4991593;28;20097;-47
2021/10/14 01:00:23;;;;;;;10.93;7.18;;;;;;;11.42;92.32;102490.88;4991569;28;20039;-46
2021/10/14 01:02:52;;;;;;;14.52;8.25;;;;;;;11.44;92.05;102480.56;4991657;28;20041;-45
2021/10/14 01:05:20;;;;;;;11.98;7.78;;;;;;;11.44;92.40;102480.56;4992316;28;20460;-50
2021/10/14 01:07:48;;;;;;;13.80;8.48;;;;;;;11.43;92.14;102474.28;4995592;28;20049;-48
2021/10/14 01:10:16;;;;;;;15.90;9.05;;;;;;;11.43;91.92;102479.72;4987083;28;20050;-47
2021/10/14 01:12:44;;;;;;;17.38;9.73;;;;;;;11.43;91.92;102474.28;4995168;28;20405;-46
2021/10/14 01:15:17;;;;;;;16.80;9.00;;;;;;;11.42;92.52;102472.59;4994411;28;20046;-49
2021/10/14 01:17:44;;;;;;;17.40;8.98;;;;;;;11.42;92.37;102472.59;5009865;28;20046;-48
2021/10/14 01:20:12;;;;;;;14.02;8.82;;;;;;;11.45;92.44;102466.69;4994305;28;20113;-49
2021/10/14 01:22:40;;;;;;;15.40;9.52;;;;;;;11.44;92.89;102465.00;4995140;28;20097;-49
2021/10/14 01:25:08;;;;;;;13.57;9.40;;;;;;;11.44;92.65;102469.63;4995187;28;20050;-48
2021/10/14 01:27:36;;;;;;;16.02;10.10;;;;;;;11.44;93.42;102470.47;4994429;28;20055;-45
2021/10/14 01:30:05;;;;;;;14.32;9.98;;;;;;;11.44;93.13;102465.00;4994400;28;20042;-49
2021/10/14 01:32:33;;;;;;;15.18;10.48;;;;;;;11.45;93.65;102468.59;4990626;28;20066;-46
2021/10/14 01:35:03;;;;;;;18.00;10.70;;;;;;;11.44;93.81;102467.72;4989848;28;20047;-48
2021/10/14 01:37:30;;;;;;;14.18;10.05;;;;;;;11.44;93.55;102456.81;4994672;28;20049;-45
2021/10/14 01:39:58;;;;;;;13.27;9.77;;;;;;;11.45;93.40;102461.22;4994751;28;20097;-48
2021/10/14 01:42:26;;;;;;;16.58;10.05;;;;;;;11.46;93.56;102457.41;4994518;28;20039;-47
2021/10/14 01:44:54;;;;;;;16.25;10.68;;;;;;;11.45;93.46;102460.41;4994439;28;20051;-49
2021/10/14 01:47:21;;;;;;;16.15;11.25;;;;;;;11.43;93.21;102455.16;4994537;28;20096;-48
2021/10/14 01:49:49;;;;;;;18.20;12.32;;;;;;;11.43;94.18;102449.72;5009583;28;20054;-47
2021/10/14 01:52:17;;;;;;;19.33;11.85;;;;;;;11.45;93.48;102452.22;4994258;28;20396;-44
2021/10/14 01:54:44;;;;;;;14.55;11.30;;;;;;;11.44;93.74;102447.81;4994653;28;20531;-45
2021/10/14 01:57:12;;;;;;;16.75;12.57;;;;;;;11.44;93.62;102451.34;4994114;28;20066;-48
2021/10/14 01:59:39;;;;;;;14.63;11.45;;;;;;;11.45;93.82;102453.03;4993774;28;20481;-47
2021/10/14 02:02:07;;;;;;;19.98;12.52;;;;;;;11.45;93.48;102455.78;4994345;28;20053;-48
2021/10/14 02:04:35;;;;;;;17.75;12.65;;;;;;;11.46;93.39;102456.59;5009457;28;20046;-48
2021/10/14 02:07:02;;;;;;;17.95;12.02;;;;;;;11.45;93.72;102461.22;4994384;28;20149;-47
2021/10/14 02:09:30;;;;;;;18.30;12.82;;;;;;;11.45;94.08;102449.50;4993540;28;20441;-47
2021/10/14 02:11:57;;;;;;;19.85;12.90;;;;;;;11.44;94.09;102448.63;4994375;28;20042;-47
2021/10/14 02:14:25;;;;;;;21.17;13.00;;;;;;;11.44;93.99;102454.09;4994143;28;20077;-44
2021/10/14 02:16:52;;;;;;;19.67;13.68;;;;;;;11.43;94.19;102452.44;4993864;28;20496;-48
2021/10/14 02:19:20;;;;;;;21.27;13.75;;;;;;;11.43;94.21;102446.97;4993701;28;20130;-46
2021/10/14 02:21:47;;;;;;;19.52;13.48;;;;;;;11.42;93.60;102448.03;4993940;28;20096;-50
2021/10/14 02:24:15;;;;;;;16.88;12.63;;;;;;;11.40;94.04;102455.66;4993884;28;20457;-48
2021/10/14 02:26:42;;;;;;;17.90;11.85;;;;;;;11.40;93.90;102444.72;4993615;28;20047;-51
2021/10/14 02:29:12;;;;;;;19.23;12.68;;;;;;;11.40;93.92;102444.72;4993888;28;20054;-50
2021/10/14 02:31:40;;;;;;;17.55;11.07;;;;;;;11.40;93.94;102435.69;4993198;28;20553;-46
2021/10/14 02:34:09;;;;;;;19.10;12.05;;;;;;;11.39;93.84;102434.84;4994041;28;20050;-47
2021/10/14 02:36:36;;;;;;;15.95;12.13;;;;;;;11.39;93.53;102429.41;4993877;28;20049;-47
2021/10/14 02:39:05;;;;;;;19.33;12.65;;;;;;;11.39;93.64;102432.13;4993757;28;20882;-50
2021/10/14 02:41:32;;;;;;;20.60;13.20;;;;;;;11.40;93.67;102428.34;4992721;28;20524;-47
2021/10/14 02:44:00;;;;;;;23.10;13.85;;;;;;;11.41;93.05;102430.00;4993225;28;20042;-44
2021/10/14 02:46:28;;;;;;;17.30;12.57;;;;;;;11.42;93.41;102433.56;4989018;28;20405;-48
2021/10/14 02:48:55;;;;;;;17.38;11.73;;;;;;;11.41;93.28;102427.28;4987780;28;20416;-47
2021/10/14 02:51:23;;;;;;;15.07;11.30;;;;;;;11.41;93.46;102424.53;4985418;28;20046;-48
2021/10/14 02:53:51;;;;;;;17.92;11.90;;;;;;;11.42;93.16;102423.47;4991281;28;20552;-47
2021/10/14 02:56:18;;;;;;;22.88;13.50;;;;;;;11.41;92.81;102429.19;4993337;28;20502;-47
2021/10/14 02:58:46;;;;;;;18.67;12.10;;;;;;;11.40;92.69;102433.81;4992866;28;20049;-47
2021/10/14 03:01:13;;;;;;;18.88;11.75;;;;;;;11.40;93.17;102431.06;4993539;28;20074;-46
2021/10/14 03:03:45;;;;;;;20.17;12.50;;;;;;;11.40;92.69;102427.50;4992343;28;20085;-47
2021/10/14 03:06:13;;;;;;;21.50;12.35;;;;;;;11.41;92.74;102431.91;4993169;28;20518;-44
2021/10/14 03:08:41;;;;;;;20.52;12.18;;;;;;;11.41;93.10;102427.28;4993272;28;20053;-46
2021/10/14 03:11:08;;;;;;;17.88;12.00;;;;;;;11.42;93.32;102418.00;4992913;28;20061;-47
2021/10/14 03:13:36;;;;;;;19.10;10.93;;;;;;;11.44;93.33;102425.97;4992484;28;20418;-47
2021/10/14 03:16:04;;;;;;;18.73;12.35;;;;;;;11.43;93.07;102425.16;4992966;28;20049;-48
2021/10/14 03:18:33;;;;;;;18.40;11.30;;;;;;;11.43;93.51;102429.78;4993087;28;20053;-48
2021/10/14 03:21:01;;;;;;;17.27;10.75;;;;;;;11.43;93.13;102430.59;4993067;28;20038;-48
2021/10/14 03:23:28;;;;;;;17.60;10.85;;;;;;;11.44;92.58;102432.25;4992302;28;20042;-48
2021/10/14 03:25:56;;;;;;;18.90;12.00;;;;;;;11.44;93.36;102429.53;4992612;28;20042;-47
2021/10/14 03:28:23;;;;;;;19.02;11.68;;;;;;;11.43;92.91;102430.59;4992263;28;20058;-48
2021/10/14 03:30:51;;;;;;;20.92;10.45;;;;;;;11.45;92.82;102433.09;4992988;28;20045;-45
2021/10/14 03:33:19;;;;;;;23.08;12.25;;;;;;;11.44;92.73;102432.25;4992911;28;20478;-48
2021/10/14 03:35:46;;;;;;;17.23;10.98;;;;;;;11.44;93.10;102432.25;4992181;28;20097;-48
2021/10/14 03:41:00;;;;;;;15.77;11.18;;;;;;;11.43;93.33;102429.78;4992478;28;20509;-49
2021/10/14 03:43:28;;;;;;;17.10;10.27;;;;;;;11.42;92.95;102418.00;4992416;28;20511;-48
2021/10/14 03:45:55;;;;;;;16.63;10.68;;;;;;;11.42;92.99;102423.47;4992011;28;20042;-49
2021/10/14 03:48:23;;;;;;;17.20;10.77;;;;;;;11.42;92.98;102411.72;4992216;28;20057;-49
2021/10/14 03:50:50;;;;;;;20.92;11.60;;;;;;;11.41;93.41;102421.81;4992533;28;20505;-48
2021/10/14 03:53:18;;;;;;;20.13;10.90;;;;;;;11.41;93.24;102423.72;4992434;28;20573;-48
2021/10/14 03:55:45;;;;;;;16.92;10.40;;;;;;;11.42;93.04;102423.47;4991708;28;20441;-49
2021/10/14 03:58:13;;;;;;;15.90;8.80;;;;;;;11.44;93.55;102421.34;4992135;28;20085;-45
2021/10/14 04:00:41;;;;;;;21.50;10.80;;;;;;;11.46;92.98;102421.94;4992151;28;20497;-47
2021/10/14 04:03:08;;;;;;;20.10;11.80;;;;;;;11.45;93.25;102412.09;4992431;28;20043;-48
2021/10/14 04:05:36;;;;;;;16.77;10.38;;;;;;;11.44;93.65;102424.06;4991567;28;20047;-47
2021/10/14 04:08:04;;;;;;;19.35;11.88;;;;;;;11.44;93.24;102423.25;4981586;28;20034;-47
2021/10/14 04:10:32;;;;;;;15.57;9.85;;;;;;;11.44;93.30;102429.53;4992126;28;20062;-46
2021/10/14 04:13:19;;;;;;;23.77;10.73;;;;;;;11.46;93.35;102419.22;4991931;28;20093;-47
2021/10/14 04:16:07;;;;;;;19.30;10.05;;;;;;;11.46;93.10;102427.41;4991351;28;20472;-48
2021/10/14 04:18:54;;;;;;;17.58;10.38;;;;;;;11.44;93.11;102421.34;4986474;28;20524;-48
2021/10/14 04:21:42;;;;;;;18.20;10.27;;;;;;;11.44;93.75;102426.78;4991783;28;20069;-47
2021/10/14 04:24:30;;;;;;;17.27;10.27;;;;;;;11.46;93.53;102418.38;4991369;28;20178;-48
2021/10/14 04:27:17;;;;;;;18.83;11.00;;;;;;;11.47;93.33;102411.84;4991913;28;20050;-47
2021/10/14 04:30:06;;;;;;;18.48;10.90;;;;;;;11.47;92.94;102420.03;4992445;28;20054;-47
2021/10/14 04:32:54;;;;;;;19.38;9.88;;;;;;;11.47;93.27;102417.31;4992113;28;20050;-48
2021/10/14 04:35:41;;;;;;;16.42;9.93;;;;;;;11.48;92.87;102414.34;5003638;28;20057;-45
2021/10/14 04:38:29;;;;;;;17.30;9.85;;;;;;;11.49;93.35;102409.72;4990611;28;20132;-47
2021/10/14 04:41:16;;;;;;;21.27;11.20;;;;;;;11.48;92.86;102408.06;5005179;28;20476;-47
2021/10/14 04:44:04;;;;;;;19.70;10.40;;;;;;;11.48;92.61;102400.69;4995817;28;20058;-47
2021/10/14 04:46:48;;;;;;;15.57;9.23;;;;;;;11.48;92.76;102397.97;5010673;28;20070;-47
2021/10/14 04:49:36;;;;;;;20.20;9.88;;;;;;;11.48;93.56;102395.25;4997008;28;20070;-46
2021/10/14 04:52:23;;;;;;;17.15;10.23;;;;;;;11.48;93.08;102384.31;4982187;28;20120;-46
2021/10/14 04:54:51;;;;;;;18.70;9.13;;;;;;;11.50;93.57;102389.56;4995581;28;20058;-46
2021/10/14 04:57:19;;;;;;;18.35;10.48;;;;;;;11.52;93.71;102379.25;4995632;28;20042;-47
2021/10/14 04:59:46;;;;;;;17.65;11.38;;;;;;;11.52;92.95;102390.97;4995062;28;20424;-48
2021/10/14 05:02:14;;;;;;;17.67;10.98;;;;;;;11.50;93.27;102393.13;4995620;28;20042;-47
2021/10/14 05:04:41;;;;;;;20.20;11.65;;;;;;;11.54;92.87;102398.91;4995410;28;20034;-48
2021/10/14 05:07:09;;;;;;;16.25;9.68;;;;;;;11.54;93.48;102392.63;4994420;28;20529;-48
2021/10/14 05:09:36;;;;;;;15.80;10.02;;;;;;;11.52;93.14;102390.97;4995093;28;20051;-48
2021/10/14 05:12:04;;;;;;;12.70;7.95;;;;;;;11.51;93.61;102392.03;4995171;28;20113;-48
2021/10/14 05:14:32;;;;;;;15.80;9.80;;;;;;;11.54;93.12;102396.19;4995151;28;20046;-46
2021/10/14 05:16:59;;;;;;;19.98;11.70;;;;;;;11.51;93.51;102397.50;4994842;28;20110;-46
2021/10/14 05:19:27;;;;;;;16.58;9.68;;;;;;;11.51;93.38;102391.22;4994340;28;20061;-48
2021/10/14 05:21:54;;;;;;;16.73;8.90;;;;;;;11.53;93.16;102394.53;4995057;28;20081;-45
2021/10/14 05:24:22;;;;;;;18.95;11.95;;;;;;;11.48;93.48;102387.06;4995349;28;20070;-47
2021/10/14 05:26:49;;;;;;;18.27;10.63;;;;;;;11.50;93.36;102390.38;4994556;28;20049;-47
2021/10/14 05:29:17;;;;;;;21.75;12.80;;;;;;;11.47;93.71;102388.13;4994585;28;20042;-47
2021/10/14 05:31:44;;;;;;;18.17;11.15;;;;;;;11.46;93.19;102400.09;4994375;28;20046;-47
2021/10/14 05:34:12;;;;;;;17.13;10.75;;;;;;;11.44;93.71;102393.22;4994490;28;20049;-47
2021/10/14 05:36:40;;;;;;;17.70;10.43;;;;;;;11.47;93.63;102393.59;4994587;28;20049;-47
2021/10/14 05:39:07;;;;;;;21.13;12.68;;;;;;;11.42;94.06;102396.16;4994591;28;20042;-48
2021/10/14 05:41:35;;;;;;;18.90;11.77;;;;;;;11.43;93.88;102402.47;4994229;28;20080;-47
2021/10/14 05:44:02;;;;;;;18.40;11.00;;;;;;;11.45;94.55;102400.34;4994563;28;20066;-48
2021/10/14 05:46:30;;;;;;;19.83;11.90;;;;;;;11.44;94.68;102409.59;4994962;28;20042;-48
2021/10/14 05:48:58;;;;;;;19.35;11.93;;;;;;;11.43;94.81;102408.78;4993998;28;20046;-49
2021/10/14 05:51:25;;;;;;;21.20;13.27;;;;;;;11.42;94.96;102411.72;4993747;28;20049;-48
2021/10/14 05:53:53;;;;;;;16.50;11.88;;;;;;;11.42;94.91;102411.72;4994300;28;20489;-49
2021/10/14 05:56:23;;;;;;;19.00;11.00;;;;;;;11.43;95.04;102413.41;4994594;28;20043;-48
2021/10/14 05:58:51;;;;;;;20.23;12.77;;;;;;;11.43;95.42;102414.22;4994602;28;20137;-49
2021/10/14 06:01:19;;;;;;;19.02;12.70;;;;;;;11.44;94.98;102415.88;4994225;28;20046;-47
2021/10/14 06:03:46;;;;;;;20.77;11.57;;;;;;;11.43;95.81;102411.50;4993862;28;20051;-48
2021/10/14 06:06:14;;;;;;;19.63;12.10;;;;;;;11.42;96.01;102403.53;4993911;28;20092;-46
2021/10/14 06:08:42;;;;;;;24.10;13.18;;;;;;;11.42;96.11;102406.25;4989880;28;20074;-47
2021/10/14 06:11:09;;;;;;;18.65;12.88;;;;;;;11.40;96.62;102403.78;4299333;28;10000425;-46
2021/10/14 06:13:37;;;;;;;17.42;13.80;;;;;;;11.40;96.77;102402.94;4991815;28;20097;-49
2021/10/14 06:16:05;;;;;;;20.15;12.98;;;;;;;11.40;97.56;102397.47;4986552;28;20066;-45
2021/10/14 06:18:33;;;;;;;21.85;13.43;;;;;;;11.41;97.00;102399.16;4983231;28;20098;-44
2021/10/14 06:21:01;;;;;;;19.98;11.60;;;;;;;11.44;97.17;102399.50;4991290;28;20050;-45
2021/10/14 06:23:29;;;;;;;21.55;12.57;;;;;;;11.44;96.82;102404.13;4991213;28;20133;-47
2021/10/14 06:25:58;;;;;;;17.48;11.65;;;;;;;11.46;96.68;102402.00;4991537;28;20046;-47
2021/10/14 06:28:25;;;;;;;19.73;12.27;;;;;;;11.47;96.87;102398.19;4991577;28;20058;-46
2021/10/14 06:30:53;;;;;;;12.57;8.07;;;;;;;11.51;96.40;102397.50;4991056;28;20453;-47
2021/10/14 06:33:21;;;;;;;19.90;11.18;;;;;;;11.52;96.30;102395.63;4991280;28;20042;-44
2021/10/14 06:35:48;;;;;;;21.15;11.85;;;;;;;11.51;96.73;102397.50;4988931;28;20049;-46
2021/10/14 06:38:16;;;;;;;16.40;11.18;;;;;;;11.52;96.62;102393.72;4991253;28;20098;-47
2021/10/14 06:40:43;;;;;;;19.08;12.15;;;;;;;11.54;97.05;102398.09;4989774;28;20413;-48
2021/10/14 06:43:11;;;;;;;17.67;12.07;;;;;;;11.57;96.52;102392.16;4991234;28;20061;-48
2021/10/14 06:45:39;;;;;;;17.35;11.85;;;;;;;11.56;97.04;102393.22;4990425;28;20049;-47
2021/10/14 06:48:07;;;;;;;19.67;12.82;;;;;;;11.56;97.20;102393.22;4990122;28;20056;-48
2021/10/14 06:50:34;;;;;;;21.27;12.68;;;;;;;11.54;96.64;102390.72;4990328;28;20038;-48
2021/10/14 06:53:08;;;;;;;20.65;11.88;;;;;;;11.55;96.93;102384.22;4990413;28;20046;-45
2021/10/14 06:55:37;;;;;;;21.63;12.80;;;;;;;11.54;96.77;102396.19;4989149;28;20050;-48
2021/10/14 06:58:04;;;;;;;19.23;12.18;;;;;;;11.54;96.51;102393.47;4990431;28;20050;-47
2021/10/14 07:00:32;;;;;;;22.30;12.57;;;;;;;11.54;97.03;102387.19;4989969;28;20042;-45
2021/10/14 07:02:59;;;;;;;19.55;12.32;;;;;;;11.55;96.99;102397.88;4991851;28;20520;-47
2021/10/14 07:05:27;;;;;;;19.90;12.18;;;;;;;11.55;96.88;102389.69;4992229;28;20054;-48
2021/10/14 07:07:55;;;;;;;20.13;11.57;;;;;;;11.56;97.38;102393.22;4991849;28;20485;-47
2021/10/14 07:10:23;;;;;;;22.08;12.50;;;;;;;11.56;97.22;102395.97;4992064;28;20066;-47
2021/10/14 07:12:52;;;;;;;17.88;11.38;;;;;;;11.58;97.39;102396.56;4992792;28;20030;-46
2021/10/14 07:15:20;;;;;;;18.52;11.38;;;;;;;11.58;97.30;102399.28;4992301;28;20038;-48
2021/10/14 07:17:48;;;;;;;18.02;11.93;;;;;;;11.58;96.78;102399.28;4991573;28;20512;-47
2021/10/14 07:20:15;;;;;;;18.67;11.65;;;;;;;11.59;96.98;102393.56;4992645;28;20445;-47
2021/10/14 07:23:11;;;;;;;20.42;12.52;;;;;;;11.61;97.36;102387.91;4989483;28;20093;-44
2021/10/14 07:25:59;;;;;;;20.20;11.30;;;;;;;11.62;97.35;102384.13;4985458;28;20101;-46
2021/10/14 07:28:47;;;;;;;22.05;13.40;;;;;;;11.62;97.04;102375.94;4989952;28;20489;-44
2021/10/14 07:31:16;;;;;;;22.45;11.98;;;;;;;11.63;97.54;102383.84;4992130;28;20042;-45
2021/10/14 07:33:43;;;;;;;18.10;11.70;;;;;;;11.64;97.20;102381.94;4980265;28;20393;-46
2021/10/14 07:36:12;;;;;;;17.65;11.60;;;;;;;11.63;96.71;102381.13;4999932;28;20049;-48
2021/10/14 07:38:39;;;;;;;21.42;12.43;;;;;;;11.64;97.11;102391.00;4989481;28;20050;-47
2021/10/14 07:41:08;;;;;;;20.65;12.45;;;;;;;11.65;97.66;102383.63;4990034;28;20077;-46
2021/10/14 07:43:35;;;;;;;22.80;12.63;;;;;;;11.65;97.38;102389.09;4980896;28;20050;-47
2021/10/14 07:46:07;;;;;;;18.95;12.32;;;;;;;11.67;97.60;102392.41;4990045;28;20057;-44
2021/10/14 07:48:35;;;;;;;19.20;12.98;;;;;;;11.65;97.13;102395.38;4991178;28;21633;-47
2021/10/14 07:51:04;;;;;;;18.67;11.77;;;;;;;11.67;97.90;102400.63;4989660;28;20034;-50
2021/10/14 07:53:31;;;;;;;18.25;11.80;;;;;;;11.67;97.71;102397.88;4992017;28;20050;-48
2021/10/14 07:55:59;;;;;;;21.17;13.43;;;;;;;11.68;97.71;102397.63;4989652;28;20057;-48
2021/10/14 07:58:26;;;;;;;20.15;12.65;;;;;;;11.69;97.85;102401.22;4991218;28;20776;-47
2021/10/14 08:00:54;;;;;;;25.67;12.90;;;;;;;11.69;97.90;102403.94;4981206;28;20042;-44
2021/10/14 08:03:22;;;;;;;21.60;12.95;;;;;;;11.71;97.63;102399.06;4987476;28;20050;-48
2021/10/14 08:05:50;;;;;;;17.73;11.68;;;;;;;11.70;98.09;102398.22;4985157;28;20049;-49
2021/10/14 08:08:17;;;;;;;20.38;12.82;;;;;;;11.72;98.21;102400.72;4987453;28;20429;-48
2021/10/14 08:10:46;;;;;;;24.25;13.43;;;;;;;11.77;97.64;102403.56;4987528;28;20049;-46
2021/10/14 08:13:14;;;;;;;22.48;13.18;;;;;;;11.76;97.44;102401.94;4982907;28;20054;-46
2021/10/14 08:15:50;;;;;;;23.30;14.68;;;;;;;11.76;98.23;102395.59;4990471;28;20549;-47
2021/10/14 08:18:19;;;;;;;29.90;15.25;;;;;;;11.73;98.57;102400.47;4990809;28;20056;-47
2021/10/14 08:20:47;;;;;;;22.92;14.55;;;;;;;11.71;98.92;102393.59;4992212;28;20089;-50
2021/10/14 08:23:16;;;;;;;22.77;12.30;;;;;;;11.76;99.05;102399.19;4991728;28;20042;-47
2021/10/14 08:25:44;;;;;;;22.25;13.25;;;;;;;11.78;98.66;102397.03;4991669;28;20492;-50
2021/10/14 08:28:12;;;;;;;25.42;13.75;;;;;;;11.79;98.30;102400.63;4991425;28;20386;-49
2021/10/14 08:30:42;;;;;;;21.27;12.45;;;;;;;11.81;98.66;102388.38;4991698;28;20039;-48
2021/10/14 08:33:10;;;;;;;26.25;13.38;;;;;;;11.81;98.31;102385.66;4991484;28;20512;-50
2021/10/14 08:35:38;;;;;;;20.98;12.82;;;;;;;11.83;98.70;102391.69;4991312;28;20484;-50
2021/10/14 08:38:07;;;;;;;24.20;12.30;;;;;;;11.84;98.37;102396.09;4991210;28;20421;-50
2021/10/14 08:40:38;;;;;;;21.98;12.85;;;;;;;11.84;98.51;102398.84;4989525;28;20082;-44
2021/10/14 08:43:09;;;;;;;18.98;12.93;;;;;;;11.86;98.52;102396.69;4991467;28;20042;-48
2021/10/14 08:45:39;;;;;;;20.58;12.60;;;;;;;11.87;98.40;102394.81;4991026;28;20046;-50
2021/10/14 08:48:07;;;;;;;22.88;11.15;;;;;;;11.88;98.28;102389.13;4991568;28;20161;-48
2021/10/14 08:50:39;;;;;;;18.73;11.70;;;;;;;11.89;98.54;102385.31;4991364;28;20482;-48
2021/10/14 08:53:06;;;;;;;21.10;12.75;;;;;;;11.92;99.03;102390.28;4991917;28;20053;-48
2021/10/14 08:55:38;;;;;;;24.25;14.25;;;;;;;11.93;99.04;102397.44;4990904;28;20077;-46
2021/10/14 08:58:09;;;;;;;20.00;11.93;;;;;;;11.95;98.71;102397.19;4991130;28;20069;-48
2021/10/14 09:00:38;;;;;;;22.70;12.52;;;;;;;11.98;99.08;102388.53;4991403;28;20042;-49
2021/10/14 09:03:25;;;;;;;21.88;12.18;;;;;;;11.99;98.88;102390.19;4991687;28;20514;-50
2021/10/14 09:05:53;;;;;;;19.38;12.73;;;;;;;12.00;98.46;102385.53;5005891;28;20398;-49
2021/10/14 09:08:43;;;;;;;22.50;12.63;;;;;;;12.01;99.21;102388.03;4991510;28;20038;-49
2021/10/14 09:11:40;;;;;;;27.50;14.07;;;;;;;12.04;98.95;102392.19;4979430;28;20061;-50
2021/10/14 09:14:08;;;;;;;23.05;13.38;;;;;;;12.05;99.23;102382.91;5006682;28;20050;-50
2021/10/14 09:16:38;;;;;;;21.67;12.32;;;;;;;12.07;99.17;102384.34;4990728;28;20489;-45
2021/10/14 09:19:23;;;;;;;21.77;13.57;;;;;;;12.09;99.59;102384.09;5008474;28;20053;-47
2021/10/14 09:21:51;;;;;;;23.02;14.57;;;;;;;12.10;99.49;102370.22;5008748;28;20041;-49
2021/10/14 09:24:35;;;;;;;21.13;13.05;;;;;;;12.14;99.18;102376.00;5007029;28;20038;-49
2021/10/14 09:27:05;;;;;;;25.45;12.70;;;;;;;12.15;99.48;102372.22;5007510;28;20060;-49
2021/10/14 09:29:34;;;;;;;28.45;12.73;;;;;;;12.23;99.75;102365.56;5011270;28;20045;-52
2021/10/14 09:32:17;;;;;;;23.20;16.05;;;;;;;12.25;99.96;102358.78;5012252;28;20056;-47
2021/10/14 09:34:49;;;;;;;23.73;15.80;;;;;;;12.24;99.72;102348.94;5011696;28;20144;-49
2021/10/14 09:37:17;;;;;;;24.83;15.77;;;;;;;12.21;99.67;102360.31;5003267;28;20061;-48
2021/10/14 09:39:55;;;;;;;23.88;15.45;;;;;;;12.17;100.00;102355.56;5006714;28;20038;-47
2021/10/14 09:42:58;;;;;;;25.00;15.95;;;;;;;12.16;100.00;102362.94;5011884;28;20045;-48
2021/10/14 09:45:32;;;;;;;26.20;16.08;;;;;;;12.14;100.00;102365.91;4997705;28;20100;-51
2021/10/14 09:48:11;;;;;;;22.70;15.52;;;;;;;12.15;100.00;102366.78;5010312;28;20046;-51
2021/10/14 09:50:42;;;;;;;26.25;16.80;;;;;;;12.14;100.00;102365.91;4997627;28;20050;-46
2021/10/14 09:53:12;;;;;;;24.83;16.35;;;;;;;12.15;100.00;102366.78;4994554;28;20042;-46
2021/10/14 09:55:41;;;;;;;25.63;15.45;;;;;;;12.17;100.00;102363.78;4993524;28;20097;-49
2021/10/14 09:58:09;;;;;;;27.65;16.40;;;;;;;12.18;100.00;102355.34;4993185;28;20047;-51
2021/10/14 10:00:38;;;;;;;23.65;16.20;;;;;;;12.20;100.00;102358.69;4993460;28;20452;-48
2021/10/14 10:03:08;;;;;;;25.00;16.17;;;;;;;12.20;100.00;102358.69;4994400;28;20109;-49
2021/10/14 10:05:37;;;;;;;24.60;15.60;;;;;;;12.22;100.00;102362.00;4993544;28;20038;-48
2021/10/14 10:08:11;;;;;;;24.92;15.52;;;;;;;12.24;100.00;102367.22;4994076;28;20192;-47
2021/10/14 10:10:43;;;;;;;24.25;15.65;;;;;;;12.28;100.00;102366.47;5007763;28;20044;-50
2021/10/14 10:13:11;;;;;;;19.27;13.25;;;;;;;12.34;100.00;102361.97;4993774;28;20412;-48
2021/10/14 10:15:47;;;;;;;21.63;14.20;;;;;;;12.40;100.00;102362.91;5008774;28;20046;-49
2021/10/14 10:18:42;;;;;;;19.35;12.32;;;;;;;12.44;100.00;102353.16;4993837;28;20516;-46
2021/10/14 10:21:29;;;;;;;20.73;12.63;;;;;;;12.47;100.00;102349.91;4993518;28;20062;-50
2021/10/14 10:23:58;;;;;;;21.95;13.55;;;;;;;12.46;100.00;102345.50;4993579;28;20049;-48
2021/10/14 10:26:34;;;;;;;21.20;12.35;;;;;;;12.49;100.00;102345.03;4993419;28;20520;-49
2021/10/14 10:29:12;;;;;;;15.95;11.05;;;;;;;12.50;99.94;102341.22;4993354;28;20137;-49
2021/10/14 10:31:49;;;;;;;17.63;12.13;;;;;;;12.52;100.00;102347.28;4993279;28;20042;-48
2021/10/14 10:37:29;;;;;;;16.35;10.60;;;;;;;12.59;99.63;102339.75;4992919;28;20116;-48
2021/10/14 10:40:13;;;;;;;19.77;12.80;;;;;;;12.62;99.38;102342.00;4981332;28;20045;-48
2021/10/14 10:43:29;;;;;;;20.52;11.82;;;;;;;12.65;99.29;102343.41;4992801;28;20161;-49
2021/10/14 10:45:58;;;;;;;17.67;9.88;;;;;;;12.70;98.86;102340.78;4967166;28;20051;-48
2021/10/14 10:48:40;;;;;;;21.55;13.65;;;;;;;12.71;98.80;102346.00;4971492;28;20053;-51
2021/10/14 10:51:27;;;;;;;24.33;13.10;;;;;;;12.76;99.02;102343.38;4972470;28;20058;-49
2021/10/14 10:53:54;;;;;;;19.02;10.82;;;;;;;12.81;99.28;102339.06;4972962;28;20131;-49
2021/10/14 10:56:34;;;;;;;22.35;14.15;;;;;;;12.81;99.03;102336.34;4959502;28;20045;-50
2021/10/14 10:59:03;;;;;;;21.88;14.73;;;;;;;12.82;99.11;102338.84;4972330;28;20050;-48
2021/10/14 11:01:31;;;;;;;25.05;14.23;;;;;;;12.86;98.69;102334.50;4972371;28;20505;-50
2021/10/14 11:04:01;;;;;;;23.77;13.93;;;;;;;12.89;98.82;102325.84;4971738;28;20087;-48
2021/10/14 11:06:30;;;;;;;21.45;13.68;;;;;;;12.94;98.78;102319.59;4971449;28;20043;-49
2021/10/14 11:09:06;;;;;;;21.77;14.55;;;;;;;12.95;98.44;102327.56;4951897;28;20105;-49
2021/10/14 11:11:36;;;;;;;22.27;15.23;;;;;;;12.98;97.94;102324.31;4969372;28;20047;-47
2021/10/14 11:14:04;;;;;;;25.88;16.35;;;;;;;13.00;97.61;102313.16;4972354;28;20045;-49
2021/10/14 11:16:32;;;;;;;22.55;14.38;;;;;;;13.04;97.86;102308.03;4972701;28;20437;-52
2021/10/14 11:19:01;;;;;;;21.90;14.20;;;;;;;13.08;97.51;102315.47;4992712;28;20421;-50
2021/10/14 11:21:36;;;;;;;22.90;15.38;;;;;;;13.12;97.51;102310.34;4992130;28;20125;-52
2021/10/14 11:24:05;;;;;;;18.13;11.25;;;;;;;13.14;97.16;102308.19;4992175;28;20085;-50
2021/10/14 11:26:35;;;;;;;27.40;17.23;;;;;;;13.15;97.29;102310.66;4992643;28;20145;-49
2021/10/14 11:29:16;;;;;;;24.67;17.35;;;;;;;13.12;97.33;102304.88;4992348;28;20113;-48
2021/10/14 11:32:01;;;;;;;21.73;15.25;;;;;;;13.12;97.20;102305.69;4992585;28;20038;-50